Time;durP1;ratioP1;P1;durP2;ratioP2;P2;SDS_P1;SDS_P2;PMS_P1;PMS_P2;Temp;Humidity;BMP_temperature;BMP_pressure;BME280_temperature;BME280_humidity;BME280_pressure;Samples;Min_cycle;Max_cycle;Signal;HPM_P1;HPM_P2
2022/09/07 00:02:21;;;;;;;36.03;30.20;;;;;;;8.85;63.78;101335.86;1732316;80;21232;-60
2022/09/07 00:04:47;;;;;;;41.98;29.15;;;;;;;8.83;63.66;101337.73;1734297;80;21541;-60
2022/09/07 00:07:14;;;;;;;36.55;29.25;;;;;;;8.79;63.62;101330.95;1740806;80;21011;-60
2022/09/07 00:09:41;;;;;;;35.28;27.73;;;;;;;8.76;63.74;101328.98;1740883;80;21046;-60
2022/09/07 00:12:07;;;;;;;40.23;29.70;;;;;;;8.74;63.77;101335.18;1738772;80;21026;-60
2022/09/07 00:14:34;;;;;;;35.95;27.30;;;;;;;8.74;63.85;101337.80;1729894;80;21866;-61
2022/09/07 00:17:01;;;;;;;37.55;26.40;;;;;;;8.69;63.95;101331.97;1732250;80;21293;-60
2022/09/07 00:19:28;;;;;;;33.02;26.95;;;;;;;8.70;63.82;101338.05;1730219;82;21032;-60
2022/09/07 00:21:54;;;;;;;17.60;9.73;;;;;;;8.72;63.74;101336.19;1736356;80;21043;-60
2022/09/07 00:24:21;;;;;;;35.10;26.42;;;;;;;8.78;63.72;101337.63;1736227;80;21143;-60
2022/09/07 00:26:47;;;;;;;32.60;27.15;;;;;;;8.80;63.73;101333.97;1739765;80;21141;-60
2022/09/07 00:29:14;;;;;;;35.58;27.13;;;;;;;8.79;63.77;101331.43;1742713;80;21043;-60
2022/09/07 00:31:40;;;;;;;35.88;29.55;;;;;;;8.77;63.77;101332.83;1701108;82;22802;-60
2022/09/07 00:34:07;;;;;;;32.73;26.82;;;;;;;8.72;63.82;101333.11;1738355;80;20988;-60
2022/09/07 00:36:34;;;;;;;34.80;26.42;;;;;;;8.67;63.94;101328.56;1747050;80;21067;-60
2022/09/07 00:39:01;;;;;;;32.70;26.85;;;;;;;8.65;64.08;101326.98;1749803;81;21137;-60
2022/09/07 00:41:28;;;;;;;37.80;30.77;;;;;;;8.61;64.04;101332.87;1748518;80;21098;-60
2022/09/07 00:43:57;;;;;;;35.33;29.42;;;;;;;8.57;63.92;101328.71;1749921;80;21070;-60
2022/09/07 00:46:33;;;;;;;37.67;30.60;;;;;;;8.52;63.71;101330.75;1743354;81;21105;-60
2022/09/07 00:49:17;;;;;;;37.75;29.05;;;;;;;8.48;63.51;101332.70;1751080;80;21022;-60
2022/09/07 00:51:56;;;;;;;37.83;26.57;;;;;;;8.44;63.31;101332.51;1742362;81;21149;-60
2022/09/07 00:54:30;;;;;;;37.53;26.75;;;;;;;8.46;63.04;101337.67;1741540;81;21045;-60
2022/09/07 00:56:57;;;;;;;35.00;26.97;;;;;;;8.44;62.85;101331.20;1754169;80;21033;-61
2022/09/07 00:59:28;;;;;;;38.15;28.10;;;;;;;8.40;63.11;101326.17;1753976;80;21545;-61
2022/09/07 01:01:54;;;;;;;35.43;26.82;;;;;;;8.37;63.39;101324.10;1749656;80;21778;-61
2022/09/07 01:04:21;;;;;;;31.33;13.85;;;;;;;8.35;63.68;101318.11;1749206;80;21239;-61
2022/09/07 01:06:47;;;;;;;36.15;26.70;;;;;;;8.34;63.74;101319.50;1746937;81;21003;-61
2022/09/07 01:09:17;;;;;;;35.23;27.65;;;;;;;8.26;63.59;101322.53;1752658;80;21053;-61
2022/09/07 01:11:49;;;;;;;32.42;25.02;;;;;;;8.23;63.53;101319.24;1754207;80;21690;-61
2022/09/07 01:14:13;;;;;;;34.80;27.00;;;;;;;8.19;63.56;101324.65;1751828;80;21065;-61
2022/09/07 01:17:05;;;;;;;31.60;25.27;;;;;;;8.10;63.63;101315.99;1746548;80;21520;-61
2022/09/07 01:20:03;;;;;;;31.15;24.63;;;;;;;8.08;63.79;101320.92;1749423;80;21026;-61
2022/09/07 01:22:42;;;;;;;33.73;26.02;;;;;;;8.11;64.09;101316.83;1744754;80;21212;-61
2022/09/07 01:25:12;;;;;;;32.75;25.35;;;;;;;8.16;64.31;101315.64;1737805;80;21046;-61
2022/09/07 01:27:59;;;;;;;33.13;27.07;;;;;;;8.20;64.55;101309.75;1751993;81;22125;-60
2022/09/07 01:30:26;;;;;;;34.90;26.87;;;;;;;8.22;64.58;101310.54;1747257;80;21597;-61
2022/09/07 01:33:15;;;;;;;32.90;26.05;;;;;;;8.21;64.54;101310.63;1747623;81;20992;-61
2022/09/07 01:36:06;;;;;;;34.30;26.70;;;;;;;8.15;64.47;101307.41;1741662;80;21066;-61
2022/09/07 01:39:02;;;;;;;32.88;26.40;;;;;;;8.13;64.70;101309.72;1722730;82;21072;-60
2022/09/07 01:41:57;;;;;;;23.25;12.88;;;;;;;8.12;64.78;101304.95;1723755;82;21076;-61
2022/09/07 01:44:49;;;;;;;33.53;26.20;;;;;;;8.08;64.73;101302.58;1724249;81;21120;-60
2022/09/07 01:47:36;;;;;;;24.72;12.20;;;;;;;8.02;64.64;101302.45;1728960;82;21101;-61
2022/09/07 01:50:17;;;;;;;32.25;23.85;;;;;;;7.97;64.54;101300.08;1725089;81;21048;-61
2022/09/07 01:52:55;;;;;;;35.43;24.75;;;;;;;8.02;64.76;101298.97;1727897;82;21084;-61
2022/09/07 01:55:27;;;;;;;35.10;26.12;;;;;;;8.06;65.01;101300.03;1728629;82;21041;-60
2022/09/07 01:57:59;;;;;;;31.50;24.55;;;;;;;8.08;65.66;101297.34;1729114;81;22605;-60
2022/09/07 02:00:26;;;;;;;36.58;25.45;;;;;;;8.09;66.23;101305.11;1719950;82;21041;-60
2022/09/07 02:03:06;;;;;;;25.65;11.43;;;;;;;8.07;66.17;101295.63;1722553;81;21020;-60
2022/09/07 02:06:06;;;;;;;30.35;25.15;;;;;;;8.04;65.97;101301.06;1724870;81;21136;-61
2022/09/07 02:08:40;;;;;;;33.75;26.25;;;;;;;7.97;65.82;101300.55;1723601;82;21033;-61
2022/09/07 02:11:11;;;;;;;31.25;25.62;;;;;;;7.88;65.70;101292.70;1725601;82;21490;-61
2022/09/07 02:13:55;;;;;;;21.62;11.40;;;;;;;7.83;65.80;101292.58;1735004;81;21088;-60
2022/09/07 02:16:27;;;;;;;35.70;23.55;;;;;;;7.78;65.85;101295.44;1711593;82;21079;-60
2022/09/07 02:19:01;;;;;;;34.27;23.00;;;;;;;7.81;65.85;101293.97;1718008;82;21822;-61
2022/09/07 02:21:35;;;;;;;29.20;23.00;;;;;;;7.83;65.79;101294.73;1719270;81;21056;-61
2022/09/07 02:24:23;;;;;;;25.32;10.60;;;;;;;7.82;65.83;101287.81;1710700;82;21799;-60
2022/09/07 02:26:50;;;;;;;29.40;12.28;;;;;;;7.78;65.76;101292.82;1719860;82;21084;-60
2022/09/07 02:29:16;;;;;;;32.53;24.70;;;;;;;7.73;65.69;101288.30;1722079;82;21132;-61
2022/09/07 02:31:43;;;;;;;32.23;24.30;;;;;;;7.67;65.49;101288.17;1716359;80;21038;-61
2022/09/07 02:34:09;;;;;;;33.53;23.95;;;;;;;7.64;65.42;101289.64;1715501;81;21040;-60
2022/09/07 02:36:42;;;;;;;28.45;23.75;;;;;;;7.59;65.24;101281.18;1720255;81;21136;-61
2022/09/07 02:39:08;;;;;;;34.55;24.47;;;;;;;7.53;65.24;101282.36;1722039;81;21053;-61
2022/09/07 02:41:38;;;;;;;20.85;11.90;;;;;;;7.47;65.24;101282.67;1721396;81;21073;-60
2022/09/07 02:44:12;;;;;;;37.93;25.40;;;;;;;7.42;65.30;101282.07;1721179;82;21026;-60
2022/09/07 02:47:10;;;;;;;31.80;24.10;;;;;;;7.36;65.33;101284.56;1722793;81;21502;-61
2022/09/07 02:49:57;;;;;;;14.60;8.40;;;;;;;7.34;65.27;101281.15;1722646;82;21144;-60
2022/09/07 02:52:35;;;;;;;28.90;22.42;;;;;;;7.38;65.21;101283.14;1728992;82;21029;-60
2022/09/07 02:55:25;;;;;;;29.02;22.20;;;;;;;7.41;65.20;101290.40;1711665;82;21026;-61
2022/09/07 02:58:17;;;;;;;31.68;23.38;;;;;;;7.43;65.10;101284.61;1716031;81;21009;-60
2022/09/07 03:01:09;;;;;;;18.52;9.80;;;;;;;7.42;65.06;101278.14;1725002;81;21546;-60
2022/09/07 03:03:50;;;;;;;26.95;21.42;;;;;;;7.38;65.08;101276.16;1709982;82;22095;-61
2022/09/07 03:06:25;;;;;;;32.98;24.12;;;;;;;7.35;65.10;101283.33;1722424;82;21099;-61
2022/09/07 03:08:53;;;;;;;32.83;23.92;;;;;;;7.34;65.08;101281.15;1723180;82;21060;-61
2022/09/07 03:11:20;;;;;;;27.17;12.58;;;;;;;7.29;65.07;101279.23;1721914;82;21064;-60
2022/09/07 03:13:47;;;;;;;34.13;25.40;;;;;;;7.27;65.17;101282.88;1723793;82;21060;-61
2022/09/07 03:16:14;;;;;;;31.95;22.73;;;;;;;7.21;65.23;101282.70;1728996;82;21320;-60
2022/09/07 03:18:42;;;;;;;18.77;8.83;;;;;;;7.19;65.35;101280.17;1729344;82;21017;-61
2022/09/07 03:21:09;;;;;;;30.65;21.48;;;;;;;7.25;65.25;101287.72;1728445;82;21112;-60
2022/09/07 03:23:36;;;;;;;31.90;23.70;;;;;;;7.28;65.26;101276.70;1729585;82;21056;-60
2022/09/07 03:26:03;;;;;;;29.35;23.00;;;;;;;7.29;65.26;101282.33;1726072;82;21593;-60
2022/09/07 03:28:30;;;;;;;29.77;22.67;;;;;;;7.27;65.30;101278.48;1724098;82;21318;-60
2022/09/07 03:30:56;;;;;;;31.85;23.60;;;;;;;7.24;65.34;101276.84;1726190;82;21036;-60
2022/09/07 03:33:23;;;;;;;20.45;11.55;;;;;;;7.22;65.41;101282.63;1730241;82;21099;-60
2022/09/07 03:35:58;;;;;;;34.95;25.50;;;;;;;7.17;65.62;101281.19;1724945;82;21032;-60
2022/09/07 03:38:25;;;;;;;21.97;10.75;;;;;;;7.13;65.73;101283.12;1738318;81;21027;-61
2022/09/07 03:41:02;;;;;;;29.27;24.32;;;;;;;7.07;65.87;101279.50;1734413;80;21203;-61
2022/09/07 03:43:29;;;;;;;32.83;22.98;;;;;;;7.03;66.03;101280.59;1736009;80;21004;-60
2022/09/07 03:46:02;;;;;;;17.10;9.15;;;;;;;7.00;66.05;101285.50;1732921;80;21027;-61
2022/09/07 03:48:35;;;;;;;20.68;9.45;;;;;;;7.03;66.04;101288.45;1735847;81;21014;-60
2022/09/07 03:51:06;;;;;;;30.65;22.73;;;;;;;7.05;65.87;101293.12;1699965;82;21078;-60
2022/09/07 03:53:38;;;;;;;29.57;23.47;;;;;;;7.05;65.90;101287.42;1735815;81;21833;-61
2022/09/07 03:56:12;;;;;;;17.52;9.13;;;;;;;7.06;66.09;101293.50;1735305;80;21548;-60
2022/09/07 03:58:40;;;;;;;18.05;10.20;;;;;;;7.06;66.07;101295.67;1740086;80;21042;-60
2022/09/07 04:01:09;;;;;;;20.30;10.70;;;;;;;7.02;65.97;101293.28;1735618;80;21018;-61
2022/09/07 04:03:38;;;;;;;33.83;24.18;;;;;;;6.95;65.95;101298.45;1737419;80;21091;-60
2022/09/07 04:06:05;;;;;;;21.35;12.47;;;;;;;6.88;66.09;101293.52;1735006;80;21120;-61
2022/09/07 04:08:34;;;;;;;33.13;25.48;;;;;;;6.90;66.25;101300.45;1736686;81;20987;-60
2022/09/07 04:11:03;;;;;;;36.77;25.55;;;;;;;6.86;66.29;101299.29;1733383;80;21086;-61
2022/09/07 04:13:31;;;;;;;20.65;8.83;;;;;;;6.89;66.23;101298.27;1742514;80;21425;-60
2022/09/07 04:15:57;;;;;;;32.40;24.72;;;;;;;6.97;66.19;101300.05;1736568;80;21040;-61
2022/09/07 04:18:24;;;;;;;31.33;24.05;;;;;;;7.04;66.19;101297.53;1732659;80;22116;-61
2022/09/07 04:20:50;;;;;;;33.65;24.75;;;;;;;7.10;66.21;101293.74;1737749;80;22162;-61
2022/09/07 04:23:18;;;;;;;33.78;24.40;;;;;;;7.14;66.30;101292.64;1739914;80;21541;-61
2022/09/07 04:25:49;;;;;;;30.45;24.37;;;;;;;7.19;66.35;101298.49;1731699;81;21919;-62
2022/09/07 04:28:16;;;;;;;36.25;25.32;;;;;;;7.24;66.36;101296.95;1738610;80;21040;-63
2022/09/07 04:30:43;;;;;;;17.12;9.88;;;;;;;7.31;66.41;101292.25;1742075;80;21239;-62
2022/09/07 04:33:09;;;;;;;35.52;25.12;;;;;;;7.34;66.34;101296.02;1699981;82;21089;-61
2022/09/07 04:35:38;;;;;;;26.77;12.37;;;;;;;7.35;66.42;101301.66;1737952;81;21103;-61
2022/09/07 04:38:04;;;;;;;29.23;22.15;;;;;;;7.42;66.33;101296.47;1743617;80;21053;-62
2022/09/07 04:40:31;;;;;;;29.63;20.57;;;;;;;7.52;66.24;101305.54;1747635;80;21147;-60
2022/09/07 04:42:57;;;;;;;33.25;22.42;;;;;;;7.64;66.22;101306.66;1747635;80;21236;-62
2022/09/07 04:45:24;;;;;;;26.85;21.77;;;;;;;7.75;66.32;101300.40;1745506;81;21032;-62
2022/09/07 04:47:51;;;;;;;16.95;10.28;;;;;;;7.86;66.48;101302.42;1745809;80;21190;-62
2022/09/07 04:50:17;;;;;;;25.95;19.45;;;;;;;7.95;66.25;101306.31;1746513;81;21085;-63
2022/09/07 04:52:44;;;;;;;23.87;17.32;;;;;;;8.01;66.16;101300.75;1746990;80;20993;-63
2022/09/07 04:55:11;;;;;;;23.83;17.25;;;;;;;8.09;65.88;101299.03;1739271;80;21144;-63
2022/09/07 04:57:38;;;;;;;23.35;17.62;;;;;;;8.19;65.70;101301.53;1742305;80;21523;-61
2022/09/07 05:00:07;;;;;;;28.57;17.60;;;;;;;8.29;65.33;101301.39;1749056;80;21610;-64
2022/09/07 05:02:34;;;;;;;21.52;15.88;;;;;;;8.36;65.15;101301.42;1748285;80;21039;-65
2022/09/07 05:05:01;;;;;;;23.30;16.62;;;;;;;8.49;64.74;101295.06;1743949;80;21110;-66
2022/09/07 05:07:27;;;;;;;22.42;15.50;;;;;;;8.67;64.36;101302.80;1747129;80;21229;-65
2022/09/07 05:09:54;;;;;;;24.92;17.67;;;;;;;8.83;64.16;101302.78;1744202;81;21051;-64
2022/09/07 05:12:21;;;;;;;31.77;17.42;;;;;;;8.96;64.07;101301.58;1749349;80;21027;-65
2022/09/07 05:14:48;;;;;;;25.08;16.73;;;;;;;9.10;63.86;101297.21;1747805;80;21118;-64
2022/09/07 05:17:15;;;;;;;26.60;16.55;;;;;;;9.19;63.18;101300.23;1751279;80;21536;-63
2022/09/07 05:19:41;;;;;;;24.55;17.50;;;;;;;9.26;63.09;101299.78;1745733;80;21453;-61
2022/09/07 05:22:08;;;;;;;23.65;16.87;;;;;;;9.33;62.91;101297.63;1744037;80;21531;-63
2022/09/07 05:24:35;;;;;;;22.40;16.32;;;;;;;9.40;62.78;101296.31;1745618;81;21682;-62
2022/09/07 05:27:03;;;;;;;23.92;17.05;;;;;;;9.44;62.45;101296.49;1746757;81;21579;-61
2022/09/07 05:29:29;;;;;;;29.10;16.40;;;;;;;9.48;62.46;101299.77;1745824;80;21698;-62
2022/09/07 05:31:56;;;;;;;22.45;15.18;;;;;;;9.58;62.28;101294.81;1743920;80;21951;-60
2022/09/07 05:34:23;;;;;;;20.92;14.25;;;;;;;9.71;62.18;101294.43;1739893;80;21064;-61
2022/09/07 05:36:50;;;;;;;19.48;14.30;;;;;;;9.86;61.77;101292.64;1745844;80;21071;-61
2022/09/07 05:39:17;;;;;;;17.32;11.60;;;;;;;9.97;61.68;101293.27;1748808;80;21090;-61
2022/09/07 05:41:43;;;;;;;19.23;12.98;;;;;;;10.09;60.92;101292.52;1728783;80;21086;-61
2022/09/07 05:44:10;;;;;;;15.40;10.43;;;;;;;10.16;60.54;101291.17;1737158;80;21225;-61
2022/09/07 05:46:37;;;;;;;18.82;10.65;;;;;;;10.25;59.80;101294.16;1736821;80;21550;-61
2022/09/07 05:49:04;;;;;;;15.38;10.32;;;;;;;10.32;59.14;101290.22;1739062;82;21614;-60
2022/09/07 05:51:30;;;;;;;14.98;10.10;;;;;;;10.40;58.98;101293.20;1737093;81;21142;-61
2022/09/07 05:53:57;;;;;;;14.10;9.05;;;;;;;10.48;58.78;101283.02;1739002;81;21031;-61
2022/09/07 05:56:23;;;;;;;11.88;6.92;;;;;;;10.56;58.52;101280.73;1742303;80;21248;-62
2022/09/07 05:58:50;;;;;;;10.88;7.28;;;;;;;10.64;56.96;101286.82;1747185;80;21033;-62
2022/09/07 06:01:17;;;;;;;12.63;8.10;;;;;;;10.70;56.59;101278.50;1698832;83;21125;-62
2022/09/07 06:03:43;;;;;;;12.50;7.50;;;;;;;10.78;56.43;101285.91;1684041;84;21139;-62
2022/09/07 06:06:14;;;;;;;10.30;6.90;;;;;;;10.86;56.18;101283.60;1686781;84;21098;-62
2022/09/07 06:08:47;;;;;;;8.85;5.72;;;;;;;10.96;56.09;101289.07;1701231;83;21066;-62
2022/09/07 06:11:17;;;;;;;12.00;6.08;;;;;;;11.05;54.95;101287.63;1733700;80;21516;-62
2022/09/07 06:13:44;;;;;;;11.40;5.55;;;;;;;11.15;54.53;101286.89;1736391;81;21544;-62
2022/09/07 06:16:12;;;;;;;9.83;4.50;;;;;;;11.26;53.10;101290.13;1744780;80;21023;-63
2022/09/07 06:18:41;;;;;;;8.68;4.72;;;;;;;11.34;52.84;101291.73;1737849;81;21042;-62
2022/09/07 06:21:11;;;;;;;7.28;4.47;;;;;;;11.43;51.89;101290.28;1739558;80;21265;-62
2022/09/07 06:23:40;;;;;;;8.78;4.55;;;;;;;11.51;51.56;101289.25;1736549;82;21012;-62
2022/09/07 06:26:07;;;;;;;11.57;4.78;;;;;;;11.59;51.82;101290.05;1739302;80;21079;-62
2022/09/07 06:28:39;;;;;;;11.03;5.30;;;;;;;11.67;51.93;101291.67;1703673;82;21425;-63
2022/09/07 06:31:12;;;;;;;12.07;4.95;;;;;;;11.78;51.03;101294.02;1727901;81;21047;-63
2022/09/07 06:33:40;;;;;;;7.85;4.55;;;;;;;11.86;50.57;101291.69;1737223;81;22149;-62
2022/09/07 06:36:14;;;;;;;8.90;4.15;;;;;;;11.94;51.16;101291.19;1705406;82;21118;-64
2022/09/07 06:38:41;;;;;;;9.55;5.08;;;;;;;12.03;50.96;101290.03;1705209;82;21581;-63
2022/09/07 06:41:11;;;;;;;7.92;4.50;;;;;;;12.11;50.40;101293.94;1718101;82;21062;-63
2022/09/07 06:43:38;;;;;;;6.50;3.85;;;;;;;12.21;49.94;101298.91;1714328;82;21066;-63
2022/09/07 06:46:05;;;;;;;6.97;4.12;;;;;;;12.29;49.67;101299.20;1714813;82;21247;-64
2022/09/07 06:48:32;;;;;;;7.35;3.85;;;;;;;12.37;49.97;101299.94;1717349;82;21184;-64
2022/09/07 06:53:17;;;;;;;6.65;3.85;;;;;;;12.72;49.25;101288.58;1792476;79;22669;-64
2022/09/07 06:55:44;;;;;;;7.70;3.75;;;;;;;12.87;48.29;101294.52;1748759;80;21483;-64
2022/09/07 06:58:10;;;;;;;8.85;3.33;;;;;;;12.95;48.40;101289.50;1755009;81;21248;-64
2022/09/07 07:00:37;;;;;;;6.12;3.05;;;;;;;13.04;48.46;101286.63;1750488;80;21796;-64
2022/09/07 07:03:03;;;;;;;6.97;3.40;;;;;;;13.18;47.28;101289.08;1749113;80;21069;-63
2022/09/07 07:05:31;;;;;;;11.38;3.25;;;;;;;13.29;46.75;101290.88;1711024;83;21042;-64
2022/09/07 07:07:57;;;;;;;6.97;3.33;;;;;;;13.39;46.37;101298.50;1714376;81;21045;-64
2022/09/07 07:10:25;;;;;;;7.10;2.75;;;;;;;13.45;45.15;101294.06;1713476;83;21527;-64
2022/09/07 07:12:55;;;;;;;7.10;2.55;;;;;;;13.51;44.98;101292.24;1714604;82;21053;-64
2022/09/07 07:15:26;;;;;;;6.45;3.02;;;;;;;13.60;45.21;101303.06;1707348;82;21081;-64
2022/09/07 07:17:52;;;;;;;8.68;2.72;;;;;;;13.68;45.15;101298.85;1715733;82;21555;-64
2022/09/07 07:20:20;;;;;;;5.83;2.65;;;;;;;13.77;44.12;101294.66;1711700;82;21599;-64
2022/09/07 07:22:51;;;;;;;6.83;2.72;;;;;;;13.82;43.63;101292.50;1716353;83;21104;-64
2022/09/07 07:25:18;;;;;;;7.30;3.90;;;;;;;13.88;42.88;101297.77;1714682;82;21592;-65
2022/09/07 07:27:45;;;;;;;6.78;2.67;;;;;;;13.93;43.43;101292.46;1711387;82;21141;-64
2022/09/07 07:30:13;;;;;;;8.03;3.20;;;;;;;14.02;43.85;101282.11;1715893;83;21063;-64
2022/09/07 07:32:40;;;;;;;7.20;3.00;;;;;;;14.08;42.61;101282.45;1713565;82;21068;-64
2022/09/07 07:35:07;;;;;;;5.50;2.85;;;;;;;14.16;43.60;101278.38;1718153;82;21255;-64
2022/09/07 07:37:36;;;;;;;5.37;1.90;;;;;;;14.21;41.77;101279.67;1707077;82;21051;-64
2022/09/07 07:40:04;;;;;;;6.03;1.77;;;;;;;14.27;41.34;101278.31;1714423;82;20995;-64
2022/09/07 07:42:31;;;;;;;5.05;2.10;;;;;;;14.34;41.37;101273.36;1714966;82;21049;-64
2022/09/07 07:44:58;;;;;;;4.95;1.82;;;;;;;14.41;40.92;101276.72;1714792;82;21066;-64
2022/09/07 07:47:25;;;;;;;4.17;1.75;;;;;;;14.50;39.71;101270.65;1719369;82;21272;-64
2022/09/07 07:49:52;;;;;;;3.37;1.47;;;;;;;14.57;40.51;101269.66;1717700;82;21382;-64
2022/09/07 07:52:19;;;;;;;4.47;1.65;;;;;;;14.64;38.99;101265.59;1709123;82;21055;-64
2022/09/07 07:54:47;;;;;;;5.67;1.90;;;;;;;14.70;39.02;101268.20;1701613;83;21004;-64
2022/09/07 07:57:15;;;;;;;5.10;2.00;;;;;;;14.80;37.99;101273.08;1695643;84;21063;-64
2022/09/07 07:59:41;;;;;;;4.42;1.52;;;;;;;14.90;38.30;101265.20;1695118;82;21177;-64
2022/09/07 08:02:12;;;;;;;4.30;1.90;;;;;;;15.04;38.23;101268.83;1704684;83;21062;-64
2022/09/07 08:04:39;;;;;;;4.40;2.00;;;;;;;15.13;37.55;101259.28;1673356;82;21059;-64
2022/09/07 08:07:06;;;;;;;4.95;1.92;;;;;;;15.22;37.34;101264.28;1699921;82;21668;-64
2022/09/07 08:09:32;;;;;;;5.00;2.00;;;;;;;15.31;37.56;101260.81;1699515;83;21469;-64
2022/09/07 08:12:01;;;;;;;5.95;2.20;;;;;;;15.39;36.88;101258.34;1694750;82;21552;-65
2022/09/07 08:14:27;;;;;;;4.45;1.77;;;;;;;15.47;36.55;101257.69;1694084;83;21082;-64
2022/09/07 08:16:54;;;;;;;4.70;2.30;;;;;;;15.54;35.53;101248.72;1703194;83;21004;-64
2022/09/07 08:19:21;;;;;;;4.55;2.00;;;;;;;15.56;36.24;101245.44;1689746;83;21056;-64
2022/09/07 08:21:47;;;;;;;4.90;2.00;;;;;;;15.56;37.08;101247.59;1699971;82;21066;-64
2022/09/07 08:24:14;;;;;;;4.83;2.12;;;;;;;15.56;37.06;101242.29;1689758;83;21233;-64
2022/09/07 08:26:41;;;;;;;4.55;1.62;;;;;;;15.54;36.53;101239.44;1691178;83;21515;-64
2022/09/07 08:29:07;;;;;;;3.90;1.50;;;;;;;15.52;36.59;101238.23;1698797;84;21082;-64
2022/09/07 08:31:34;;;;;;;5.00;2.30;;;;;;;15.50;36.98;101240.66;1687129;83;21106;-64
2022/09/07 08:34:00;;;;;;;4.53;2.05;;;;;;;15.49;35.97;101235.84;1689001;83;21103;-65
2022/09/07 08:36:30;;;;;;;4.50;2.27;;;;;;;15.52;36.13;101238.73;1691735;82;21800;-65
2022/09/07 08:38:56;;;;;;;5.08;2.20;;;;;;;15.55;36.34;101225.17;1700279;83;20995;-64
2022/09/07 08:41:51;;;;;;;7.70;2.85;;;;;;;15.60;35.86;101224.28;1696251;82;21043;-64
2022/09/07 08:44:44;;;;;;;6.15;2.50;;;;;;;15.67;36.30;101223.25;1698643;82;21083;-64
2022/09/07 08:47:35;;;;;;;4.83;2.25;;;;;;;15.72;35.32;101212.61;1689985;84;21388;-64
2022/09/07 08:50:10;;;;;;;4.78;2.33;;;;;;;15.77;34.60;101213.56;1697984;83;22011;-64
2022/09/07 08:52:51;;;;;;;4.97;2.20;;;;;;;15.78;35.55;101221.86;1694813;83;21066;-65
2022/09/07 08:55:34;;;;;;;5.70;2.00;;;;;;;15.84;34.20;101209.38;1686748;82;21160;-64
2022/09/07 08:58:27;;;;;;;6.28;1.98;;;;;;;15.88;34.31;101217.91;1670103;84;21962;-64
2022/09/07 09:00:53;;;;;;;11.45;3.25;;;;;;;15.92;33.64;101212.19;1685489;84;21084;-64
2022/09/07 09:03:27;;;;;;;8.35;2.22;;;;;;;15.99;34.39;101204.52;1684416;84;21168;-64
2022/09/07 09:06:21;;;;;;;5.80;2.45;;;;;;;16.10;34.21;101202.20;1690329;84;21089;-64
2022/09/07 09:09:12;;;;;;;17.10;6.25;;;;;;;16.21;34.71;101198.09;1690413;84;21692;-64
2022/09/07 09:11:50;;;;;;;5.67;2.55;;;;;;;16.36;34.14;101198.52;1697898;84;21107;-64
2022/09/07 09:14:37;;;;;;;5.87;2.83;;;;;;;16.44;33.17;101201.31;1642126;85;21105;-64
2022/09/07 09:17:11;;;;;;;9.03;2.62;;;;;;;16.44;32.60;101198.66;1660388;84;21182;-65
2022/09/07 09:20:10;;;;;;;8.80;3.10;;;;;;;16.38;33.57;101187.76;1703296;82;21083;-64
2022/09/07 09:22:36;;;;;;;5.45;2.90;;;;;;;16.42;33.33;101186.48;1668826;83;21054;-65
2022/09/07 09:25:18;;;;;;;5.87;2.83;;;;;;;16.52;33.85;101183.32;1702430;83;21079;-65
2022/09/07 09:27:46;;;;;;;5.45;2.77;;;;;;;16.63;33.18;101178.36;1701954;82;21126;-65
2022/09/07 09:30:18;;;;;;;6.17;2.77;;;;;;;16.68;33.08;101173.45;1705151;83;21903;-65
2022/09/07 09:32:47;;;;;;;6.70;3.17;;;;;;;16.70;33.16;101174.14;1707415;83;21180;-65
2022/09/07 09:35:33;;;;;;;7.37;3.00;;;;;;;16.67;32.87;101169.10;1699765;82;21173;-65
2022/09/07 09:38:02;;;;;;;6.97;3.05;;;;;;;16.67;33.65;101170.43;1702305;83;21134;-65
2022/09/07 09:40:32;;;;;;;7.37;2.87;;;;;;;16.74;32.99;101162.22;1701267;82;21105;-65
2022/09/07 09:43:08;;;;;;;5.78;2.55;;;;;;;16.80;32.83;101165.64;1699174;83;22418;-65
2022/09/07 09:45:39;;;;;;;5.60;2.92;;;;;;;16.81;32.57;101158.03;1701227;82;21184;-65
2022/09/07 09:48:09;;;;;;;5.50;2.58;;;;;;;16.83;32.73;101165.36;1690885;83;21078;-65
2022/09/07 09:50:39;;;;;;;6.08;2.27;;;;;;;16.83;32.08;101157.88;1694323;83;20991;-65
2022/09/07 09:53:06;;;;;;;8.78;3.00;;;;;;;16.87;32.84;101142.84;1682076;82;20989;-65
2022/09/07 09:55:36;;;;;;;8.45;2.80;;;;;;;16.99;33.40;101136.02;1699201;83;21286;-65
2022/09/07 09:58:06;;;;;;;7.40;3.10;;;;;;;17.18;32.44;101132.42;1687968;83;21154;-65
2022/09/07 10:00:33;;;;;;;6.05;3.17;;;;;;;17.32;32.35;101143.09;1704667;83;21046;-65
2022/09/07 10:03:13;;;;;;;8.00;3.00;;;;;;;17.43;32.39;101136.20;1703832;83;21129;-65
2022/09/07 10:05:42;;;;;;;6.22;3.40;;;;;;;17.52;31.93;101137.98;1686882;83;21115;-66
2022/09/07 10:08:27;;;;;;;12.75;4.20;;;;;;;17.59;32.00;101127.58;1693375;83;21219;-65
2022/09/07 10:10:57;;;;;;;6.53;4.03;;;;;;;17.59;31.95;101127.08;1700633;83;21079;-66
2022/09/07 10:13:45;;;;;;;8.35;4.25;;;;;;;17.55;32.21;101128.37;1701615;82;21149;-65
2022/09/07 10:16:11;;;;;;;6.92;3.47;;;;;;;17.54;31.85;101142.66;1691530;83;21124;-64
2022/09/07 10:18:40;;;;;;;8.55;4.08;;;;;;;17.57;32.44;101136.22;1699642;83;21076;-65
2022/09/07 10:21:23;;;;;;;7.62;4.80;;;;;;;17.64;32.67;101133.28;1698577;83;22410;-65
2022/09/07 10:23:55;;;;;;;9.03;4.40;;;;;;;17.72;31.71;101141.36;1689072;83;21063;-63
2022/09/07 10:26:30;;;;;;;7.97;4.30;;;;;;;17.75;31.40;101130.41;1698592;83;21069;-63
2022/09/07 10:29:07;;;;;;;10.80;4.67;;;;;;;17.76;31.87;101122.75;1700080;83;21556;-63
2022/09/07 10:31:38;;;;;;;7.08;4.05;;;;;;;17.79;31.41;101121.63;1668428;82;21068;-62
2022/09/07 10:34:10;;;;;;;6.95;3.98;;;;;;;17.86;32.18;101125.84;1701900;83;22864;-63
2022/09/07 10:36:46;;;;;;;9.03;4.58;;;;;;;17.95;32.02;101114.30;1697551;83;22363;-63
2022/09/07 10:39:20;;;;;;;9.30;4.53;;;;;;;18.09;31.75;101111.58;1693223;82;20999;-63
2022/09/07 10:42:05;;;;;;;6.75;3.62;;;;;;;18.20;31.41;101114.83;1699287;82;21060;-63
2022/09/07 10:45:04;;;;;;;7.17;3.70;;;;;;;18.34;31.34;101107.27;1701589;83;21101;-63
2022/09/07 10:47:49;;;;;;;8.98;4.60;;;;;;;18.51;31.35;101097.08;1705147;83;21803;-64
2022/09/07 10:50:55;;;;;;;8.40;3.90;;;;;;;18.63;30.94;101096.31;1703676;82;21647;-63
2022/09/07 10:53:50;;;;;;;11.03;4.33;;;;;;;18.58;30.97;101089.28;1701381;83;20980;-64
2022/09/07 10:56:33;;;;;;;7.95;4.10;;;;;;;18.54;30.89;101094.58;1700975;82;21561;-64
2022/09/07 10:59:24;;;;;;;12.30;6.97;;;;;;;18.43;30.24;101094.86;1702148;83;21039;-64
2022/09/07 11:02:02;;;;;;;10.28;4.65;;;;;;;18.29;30.76;101091.77;1704994;83;21099;-63
2022/09/07 11:04:40;;;;;;;7.67;4.03;;;;;;;18.31;31.29;101091.63;1666377;83;21146;-63
2022/09/07 11:07:41;;;;;;;7.03;3.87;;;;;;;18.41;30.51;101088.83;1701745;83;21097;-63
2022/09/07 11:10:46;;;;;;;8.90;4.28;;;;;;;18.52;29.71;101084.58;1693696;83;21518;-64
2022/09/07 11:13:16;;;;;;;6.03;3.17;;;;;;;18.56;29.12;101085.95;1697754;83;21587;-63
2022/09/07 11:15:47;;;;;;;7.70;4.20;;;;;;;18.58;29.51;101081.29;1673947;83;22319;-64
2022/09/07 11:18:24;;;;;;;9.63;3.80;;;;;;;18.63;29.14;101068.32;1697754;83;21534;-63
2022/09/07 11:20:54;;;;;;;9.75;4.42;;;;;;;18.68;29.14;101059.86;1695333;83;21071;-64
2022/09/07 11:23:43;;;;;;;9.38;4.20;;;;;;;18.74;29.62;101061.39;1704381;82;21078;-63
2022/09/07 11:26:36;;;;;;;6.60;3.67;;;;;;;18.80;29.30;101060.41;1701704;83;21073;-63
2022/09/07 11:29:16;;;;;;;8.05;3.37;;;;;;;18.87;29.37;101053.46;1705101;82;21130;-64
2022/09/07 11:31:46;;;;;;;8.08;3.33;;;;;;;19.01;28.73;101052.00;1701678;83;21008;-63
2022/09/07 11:34:25;;;;;;;6.30;3.47;;;;;;;19.11;29.25;101063.36;1702928;83;21580;-63
2022/09/07 11:37:06;;;;;;;7.15;3.27;;;;;;;19.26;29.13;101056.91;1701238;83;21027;-64
2022/09/07 11:39:37;;;;;;;30.70;6.60;;;;;;;19.40;28.38;101050.09;1704653;83;21057;-64
2022/09/07 11:42:40;;;;;;;5.70;2.87;;;;;;;19.44;28.34;101046.93;1701688;83;21536;-64
2022/09/07 11:45:39;;;;;;;7.22;3.67;;;;;;;19.49;27.67;101037.92;1703137;83;21036;-65
2022/09/07 11:48:23;;;;;;;8.83;3.42;;;;;;;19.56;27.70;101030.09;1706053;83;21105;-65
2022/09/07 11:50:56;;;;;;;6.12;2.95;;;;;;;19.63;27.95;101020.92;1673375;83;21521;-65